Time;durP1;ratioP1;P1;durP2;ratioP2;P2;SDS_P1;SDS_P2;PMS_P1;PMS_P2;Temp;Humidity;BMP_temperature;BMP_pressure;BME280_temperature;BME280_humidity;BME280_pressure;Samples;Min_cycle;Max_cycle;Signal;HPM_P1;HPM_P2
2021/03/01 00:02:10;;;;;;;23.20;12.50;;;8.00;99.90;;;;;;5020576;28;20218;-80
2021/03/01 00:04:36;;;;;;;19.08;12.35;;;8.00;99.90;;;;;;5023885;28;20213;-79
2021/03/01 00:07:04;;;;;;;17.13;12.93;;;8.00;99.90;;;;;;5022450;28;20207;-79
2021/03/01 00:09:30;;;;;;;18.67;13.90;;;8.00;99.90;;;;;;5020187;28;20193;-79
2021/03/01 00:11:56;;;;;;;25.00;14.80;;;8.00;99.90;;;;;;5021869;28;20194;-79
2021/03/01 00:14:22;;;;;;;21.35;12.80;;;8.00;99.90;;;;;;5021348;28;20198;-81
2021/03/01 00:16:49;;;;;;;27.65;14.40;;;8.00;99.90;;;;;;5031611;28;20222;-80
2021/03/01 00:19:15;;;;;;;17.13;13.32;;;8.00;99.90;;;;;;5020281;28;20720;-81
2021/03/01 00:21:41;;;;;;;18.17;12.20;;;8.00;99.90;;;;;;5018929;28;20253;-79
2021/03/01 00:24:09;;;;;;;17.73;12.70;;;8.00;99.90;;;;;;5023493;28;20197;-79
2021/03/01 00:26:36;;;;;;;18.23;14.05;;;8.00;99.90;;;;;;5018517;28;20195;-79
2021/03/01 00:29:02;;;;;;;18.88;12.80;;;8.00;99.90;;;;;;5026756;28;20748;-79
2021/03/01 00:31:28;;;;;;;20.23;14.98;;;8.10;99.90;;;;;;5019729;28;20557;-80
2021/03/01 00:33:55;;;;;;;21.02;13.90;;;8.10;99.90;;;;;;5019237;28;20202;-80
2021/03/01 00:36:21;;;;;;;22.50;14.60;;;8.10;99.90;;;;;;5021563;28;20248;-81
2021/03/01 00:38:47;;;;;;;24.77;15.07;;;8.10;99.90;;;;;;5020473;28;20237;-79
2021/03/01 00:41:15;;;;;;;24.08;16.33;;;8.10;99.90;;;;;;5021105;28;20195;-79
2021/03/01 00:43:41;;;;;;;17.20;12.00;;;8.10;99.90;;;;;;5020615;28;20247;-77
2021/03/01 00:46:08;;;;;;;23.52;14.20;;;8.10;99.90;;;;;;5022102;28;20349;-79
2021/03/01 00:48:34;;;;;;;21.52;15.15;;;8.10;99.90;;;;;;5019875;28;20191;-79
2021/03/01 00:51:00;;;;;;;19.58;14.75;;;8.10;99.90;;;;;;5018145;28;20661;-78
2021/03/01 00:53:28;;;;;;;21.95;15.02;;;8.00;99.90;;;;;;5019748;28;20205;-79
2021/03/01 00:55:55;;;;;;;21.45;15.38;;;8.00;99.90;;;;;;5024781;28;20547;-80
2021/03/01 00:58:23;;;;;;;19.88;15.10;;;8.00;99.90;;;;;;5021628;28;20225;-81
2021/03/01 01:00:51;;;;;;;21.15;16.38;;;8.00;99.90;;;;;;5021367;28;20236;-80
2021/03/01 01:03:19;;;;;;;21.38;14.65;;;8.00;99.90;;;;;;5020248;28;20734;-80
2021/03/01 01:05:45;;;;;;;23.00;16.05;;;8.00;99.90;;;;;;5021366;28;20677;-80
2021/03/01 01:08:12;;;;;;;20.50;15.30;;;8.00;99.90;;;;;;5024385;28;20251;-81
2021/03/01 01:10:38;;;;;;;24.92;17.10;;;8.00;99.90;;;;;;5020003;28;20219;-80
2021/03/01 01:13:05;;;;;;;22.85;16.80;;;7.90;99.90;;;;;;5026237;28;20244;-81
2021/03/01 01:15:33;;;;;;;25.63;17.23;;;8.00;99.90;;;;;;5028438;28;20216;-79
2021/03/01 01:18:00;;;;;;;23.92;17.20;;;7.90;99.90;;;;;;5025165;28;20272;-79
2021/03/01 01:20:27;;;;;;;27.52;16.77;;;7.90;99.90;;;;;;5027603;28;20198;-81
2021/03/01 01:22:53;;;;;;;23.27;16.02;;;7.90;99.90;;;;;;5024471;28;20520;-79
2021/03/01 01:25:20;;;;;;;24.05;16.90;;;7.90;99.90;;;;;;5024245;28;20715;-79
2021/03/01 01:27:46;;;;;;;27.45;17.27;;;7.90;99.90;;;;;;5026404;28;20289;-79
2021/03/01 01:30:15;;;;;;;30.13;16.38;;;7.80;99.90;;;;;;5023530;28;20202;-80
2021/03/01 01:32:43;;;;;;;29.00;17.30;;;7.80;99.90;;;;;;5022485;28;20194;-79
2021/03/01 01:35:11;;;;;;;27.58;17.63;;;7.80;99.90;;;;;;5027280;28;20209;-80
2021/03/01 01:37:39;;;;;;;24.60;16.60;;;7.80;99.90;;;;;;5022150;28;20206;-79
2021/03/01 01:40:10;;;;;;;24.17;17.27;;;7.80;99.90;;;;;;5023547;28;20206;-78
2021/03/01 01:42:36;;;;;;;22.92;16.75;;;7.70;99.90;;;;;;5017402;28;20289;-79
2021/03/01 01:45:07;;;;;;;26.27;19.90;;;7.70;99.90;;;;;;5024761;28;20552;-79
2021/03/01 01:47:34;;;;;;;23.05;17.38;;;7.70;99.90;;;;;;5022670;28;20194;-79
2021/03/01 01:50:01;;;;;;;27.20;16.85;;;7.70;99.90;;;;;;5021544;28;20198;-81
2021/03/01 01:52:27;;;;;;;26.55;18.85;;;7.70;99.90;;;;;;5021106;28;20206;-80
2021/03/01 01:54:54;;;;;;;31.60;19.05;;;7.70;99.90;;;;;;5021258;28;20294;-79
2021/03/01 01:57:22;;;;;;;23.80;17.88;;;7.60;99.90;;;;;;5022707;28;20193;-79
2021/03/01 01:59:48;;;;;;;27.42;17.50;;;7.60;99.90;;;;;;5016830;28;20202;-79
2021/03/01 02:02:15;;;;;;;29.58;19.98;;;7.60;99.90;;;;;;5027583;28;20309;-80
2021/03/01 02:04:45;;;;;;;22.45;17.30;;;7.60;99.90;;;;;;5025291;28;20198;-80
2021/03/01 02:07:20;;;;;;;23.98;18.15;;;7.60;99.90;;;;;;5024434;28;20197;-79
2021/03/01 02:10:00;;;;;;;23.08;17.23;;;7.60;99.90;;;;;;5021816;28;20201;-80
2021/03/01 02:12:39;;;;;;;26.08;19.30;;;7.60;99.90;;;;;;5018594;28;20616;-80
2021/03/01 02:15:10;;;;;;;28.05;20.45;;;7.60;99.90;;;;;;5026315;28;20194;-79
2021/03/01 02:17:37;;;;;;;27.08;21.20;;;7.50;99.90;;;;;;5019499;28;20680;-79
2021/03/01 02:20:08;;;;;;;31.00;18.63;;;7.50;99.90;;;;;;5022284;28;20219;-80
2021/03/01 02:22:35;;;;;;;28.67;19.00;;;7.50;99.90;;;;;;5020599;28;20195;-80
2021/03/01 02:25:05;;;;;;;33.13;21.17;;;7.50;99.90;;;;;;5023965;28;20198;-79
2021/03/01 02:27:37;;;;;;;26.83;19.00;;;7.50;99.90;;;;;;5019748;28;20553;-79
2021/03/01 02:30:08;;;;;;;29.02;19.13;;;7.50;99.90;;;;;;5027089;28;20206;-78
2021/03/01 02:32:37;;;;;;;26.65;18.77;;;7.50;99.90;;;;;;5026715;28;20201;-80
2021/03/01 02:35:06;;;;;;;30.60;19.63;;;7.40;99.90;;;;;;5024556;28;20206;-80
2021/03/01 02:37:36;;;;;;;26.10;18.58;;;7.40;99.90;;;;;;5023122;28;20197;-79
2021/03/01 02:40:04;;;;;;;27.52;18.13;;;7.40;99.90;;;;;;5023351;28;20717;-78
2021/03/01 02:42:32;;;;;;;31.17;20.13;;;7.40;99.90;;;;;;5021095;28;20186;-80
2021/03/01 02:44:59;;;;;;;28.30;18.63;;;7.40;99.90;;;;;;5022970;28;20669;-79
2021/03/01 02:47:27;;;;;;;25.83;18.70;;;7.40;99.90;;;;;;5020406;28;20288;-79
2021/03/01 02:49:56;;;;;;;27.77;20.23;;;7.40;99.90;;;;;;5023526;28;20256;-80
2021/03/01 02:52:24;;;;;;;24.70;18.85;;;7.30;99.90;;;;;;5020987;28;20285;-80
2021/03/01 02:54:52;;;;;;;25.42;18.83;;;7.30;99.90;;;;;;5020813;28;20199;-80
2021/03/01 02:57:21;;;;;;;27.77;19.70;;;7.30;99.90;;;;;;5023713;28;20293;-80
2021/03/01 02:59:49;;;;;;;25.52;18.95;;;7.30;99.90;;;;;;5022618;28;20728;-79
2021/03/01 03:02:17;;;;;;;27.70;20.80;;;7.30;99.90;;;;;;5023730;28;20238;-80
2021/03/01 03:04:45;;;;;;;24.55;19.38;;;7.20;99.90;;;;;;5023703;28;20198;-79
2021/03/01 03:07:12;;;;;;;30.75;20.15;;;7.20;99.90;;;;;;5021022;28;20683;-79
2021/03/01 03:09:39;;;;;;;36.00;21.67;;;7.20;99.90;;;;;;5020080;28;20211;-80
2021/03/01 03:12:07;;;;;;;29.30;21.15;;;7.20;99.90;;;;;;5013076;28;20194;-80
2021/03/01 03:14:35;;;;;;;28.33;20.17;;;7.20;99.90;;;;;;5024355;28;20216;-78
2021/03/01 03:17:02;;;;;;;32.38;19.98;;;7.20;99.90;;;;;;5027222;28;20214;-79
2021/03/01 03:19:29;;;;;;;34.65;22.55;;;7.10;99.90;;;;;;5023213;28;20688;-79
2021/03/01 03:21:55;;;;;;;31.33;20.67;;;7.10;99.90;;;;;;5017222;28;20202;-80
2021/03/01 03:24:21;;;;;;;33.45;22.58;;;7.10;99.90;;;;;;5025305;28;20198;-80
2021/03/01 03:26:48;;;;;;;33.53;21.02;;;7.10;99.90;;;;;;5018547;28;20213;-79
2021/03/01 03:29:15;;;;;;;30.05;20.00;;;7.10;99.90;;;;;;5026024;28;20201;-80
2021/03/01 03:31:41;;;;;;;28.95;19.20;;;7.10;99.90;;;;;;5016797;28;20221;-77
2021/03/01 03:34:08;;;;;;;29.70;19.20;;;7.10;99.90;;;;;;5020443;28;20197;-78
2021/03/01 03:36:39;;;;;;;31.85;20.83;;;7.10;99.90;;;;;;5019739;28;20206;-79
2021/03/01 03:39:09;;;;;;;30.77;20.60;;;7.10;99.90;;;;;;5023361;28;20207;-78
2021/03/01 03:41:37;;;;;;;26.80;19.15;;;7.00;99.90;;;;;;5019078;28;20801;-79
2021/03/01 03:44:05;;;;;;;30.90;20.95;;;7.00;99.90;;;;;;5024755;28;20193;-79
2021/03/01 03:46:33;;;;;;;28.10;19.45;;;7.10;99.90;;;;;;5018408;28;20198;-79
2021/03/01 03:49:00;;;;;;;34.35;19.88;;;7.00;99.90;;;;;;5023444;28;20202;-79
2021/03/01 03:51:30;;;;;;;29.92;20.48;;;7.10;99.90;;;;;;5019371;28;20244;-79
2021/03/01 03:54:01;;;;;;;32.78;20.08;;;7.10;99.90;;;;;;5020295;28;20198;-79
2021/03/01 03:56:30;;;;;;;26.20;18.80;;;7.00;99.90;;;;;;5022171;28;20198;-78
2021/03/01 03:59:02;;;;;;;28.13;20.25;;;7.00;99.90;;;;;;5021509;28;20233;-77
2021/03/01 04:01:30;;;;;;;26.40;17.75;;;7.00;99.90;;;;;;5021085;28;20549;-78
2021/03/01 04:04:03;;;;;;;34.22;21.58;;;7.00;99.90;;;;;;5021484;28;20236;-78
2021/03/01 04:06:31;;;;;;;34.33;20.52;;;6.90;99.90;;;;;;5021156;28;20205;-79
2021/03/01 04:08:59;;;;;;;33.65;19.95;;;6.90;99.90;;;;;;5017465;28;20716;-79
2021/03/01 04:11:28;;;;;;;32.05;19.45;;;6.90;99.90;;;;;;5022100;28;20634;-79
2021/03/01 04:13:56;;;;;;;27.73;19.38;;;6.90;99.90;;;;;;5022187;28;20286;-79
2021/03/01 04:16:23;;;;;;;30.27;19.05;;;6.90;99.90;;;;;;5023882;28;20230;-79
2021/03/01 04:18:53;;;;;;;27.67;20.00;;;6.90;99.90;;;;;;5024969;28;20903;-78
2021/03/01 04:21:23;;;;;;;32.15;20.90;;;6.80;99.90;;;;;;5021226;28;20281;-80
2021/03/01 04:23:52;;;;;;;30.13;20.30;;;6.90;99.90;;;;;;5020386;28;20204;-78
2021/03/01 04:26:19;;;;;;;31.10;21.42;;;6.90;99.90;;;;;;5023254;28;20197;-79
2021/03/01 04:28:47;;;;;;;31.85;20.75;;;6.90;99.90;;;;;;5024899;28;20224;-79
2021/03/01 04:31:14;;;;;;;28.13;19.95;;;6.90;99.90;;;;;;5019429;28;20252;-78
2021/03/01 04:33:42;;;;;;;36.03;21.23;;;6.80;99.90;;;;;;5017644;28;20190;-79
2021/03/01 04:36:10;;;;;;;41.33;20.85;;;6.80;99.90;;;;;;5021914;28;20619;-79
2021/03/01 04:38:37;;;;;;;30.10;20.42;;;6.90;99.90;;;;;;5019443;28;20245;-80
2021/03/01 04:41:05;;;;;;;28.92;19.23;;;6.80;99.90;;;;;;5024476;28;20204;-80
2021/03/01 04:43:35;;;;;;;25.42;18.15;;;6.80;99.90;;;;;;5027748;28;20550;-78
2021/03/01 04:46:03;;;;;;;29.20;20.10;;;6.80;99.90;;;;;;5020750;28;20197;-79
2021/03/01 04:48:31;;;;;;;31.70;19.52;;;6.80;99.90;;;;;;5024054;28;20661;-79
2021/03/01 04:50:58;;;;;;;30.77;20.17;;;6.80;99.90;;;;;;5028085;28;20209;-79
2021/03/01 04:53:25;;;;;;;28.48;19.15;;;6.80;99.90;;;;;;5020718;28;20632;-79
2021/03/01 04:55:53;;;;;;;36.03;20.75;;;6.80;99.90;;;;;;5024939;28;20205;-79
2021/03/01 04:58:20;;;;;;;33.47;19.48;;;6.70;99.90;;;;;;5023936;28;20226;-79
2021/03/01 05:00:47;;;;;;;29.58;18.80;;;6.80;99.90;;;;;;5027439;28;20197;-79
2021/03/01 05:03:14;;;;;;;30.70;19.23;;;6.70;99.90;;;;;;5024199;28;20234;-79
2021/03/01 05:05:41;;;;;;;36.65;20.45;;;6.70;99.90;;;;;;5023817;28;20189;-79
2021/03/01 05:08:13;;;;;;;30.23;20.45;;;6.70;99.90;;;;;;5021136;28;20245;-79
2021/03/01 05:10:40;;;;;;;28.73;17.80;;;6.70;99.90;;;;;;5024512;28;20198;-79
2021/03/01 05:13:07;;;;;;;39.13;22.48;;;6.70;99.90;;;;;;5023211;28;20190;-81
2021/03/01 05:15:33;;;;;;;35.10;20.85;;;6.70;99.90;;;;;;5024386;28;20249;-79
2021/03/01 05:18:00;;;;;;;30.25;19.73;;;6.70;99.90;;;;;;5020604;28;20260;-78
2021/03/01 05:20:26;;;;;;;31.25;20.73;;;6.70;99.90;;;;;;5024689;28;20208;-80
2021/03/01 05:22:52;;;;;;;31.00;20.15;;;6.70;99.90;;;;;;5021784;28;20203;-78
2021/03/01 05:25:19;;;;;;;32.30;19.65;;;6.70;99.90;;;;;;5022862;28;20191;-79
2021/03/01 05:27:45;;;;;;;29.98;19.50;;;6.70;99.90;;;;;;5024517;28;20650;-79
2021/03/01 05:30:13;;;;;;;38.13;20.33;;;6.70;99.90;;;;;;5024482;28;20198;-81
2021/03/01 05:32:40;;;;;;;32.97;19.98;;;6.80;99.90;;;;;;5021644;28;20206;-79
2021/03/01 05:35:07;;;;;;;28.42;18.92;;;6.80;99.90;;;;;;5022196;28;20230;-81
2021/03/01 05:37:34;;;;;;;29.88;19.70;;;6.80;99.90;;;;;;5020735;28;20190;-80
2021/03/01 05:40:00;;;;;;;30.23;19.40;;;6.80;99.90;;;;;;5023977;28;20222;-79
2021/03/01 05:42:28;;;;;;;30.20;18.85;;;6.80;99.90;;;;;;5024974;28;20209;-79
2021/03/01 05:44:55;;;;;;;29.25;17.90;;;6.90;99.90;;;;;;5027436;28;20190;-78
2021/03/01 05:47:23;;;;;;;25.13;18.40;;;6.90;99.90;;;;;;5024198;28;20190;-79
2021/03/01 05:49:50;;;;;;;32.20;19.58;;;6.90;99.90;;;;;;5020799;28;20194;-78
2021/03/01 05:52:18;;;;;;;31.45;18.67;;;6.90;99.90;;;;;;5024126;28;20190;-80
2021/03/01 05:54:46;;;;;;;29.42;19.58;;;6.90;99.90;;;;;;5022171;28;20202;-79
2021/03/01 05:57:13;;;;;;;29.20;19.20;;;6.90;99.90;;;;;;5026609;28;20225;-79
2021/03/01 05:59:41;;;;;;;26.02;18.40;;;6.90;99.90;;;;;;5025356;28;20222;-80
2021/03/01 06:02:07;;;;;;;29.80;20.23;;;6.90;99.90;;;;;;5001779;28;553044;-79
2021/03/01 06:04:38;;;;;;;28.90;18.63;;;6.90;99.90;;;;;;5018743;28;20199;-81
2021/03/01 06:07:05;;;;;;;30.75;20.20;;;6.90;99.90;;;;;;5024845;28;20674;-80
2021/03/01 06:09:31;;;;;;;31.23;19.90;;;6.90;99.90;;;;;;5025772;28;20199;-80
2021/03/01 06:11:58;;;;;;;32.53;20.52;;;6.80;99.90;;;;;;5024956;28;20190;-79
2021/03/01 06:14:24;;;;;;;30.02;20.42;;;6.80;99.90;;;;;;5023623;28;20202;-80
2021/03/01 06:17:11;;;;;;;33.85;20.05;;;6.80;99.90;;;;;;5025309;28;20315;-79
2021/03/01 06:19:49;;;;;;;29.23;19.17;;;6.80;99.90;;;;;;5021853;28;20225;-80
2021/03/01 06:22:17;;;;;;;30.60;19.40;;;6.80;99.90;;;;;;5021303;28;20200;-79
2021/03/01 06:24:43;;;;;;;30.65;19.20;;;6.80;99.90;;;;;;5026454;28;20194;-79
2021/03/01 06:27:10;;;;;;;29.67;19.05;;;6.80;99.90;;;;;;5025909;28;20190;-79
2021/03/01 06:30:10;;;;;;;26.50;18.70;;;6.80;99.90;;;;;;5025567;28;20198;-79
2021/03/01 06:32:36;;;;;;;28.10;17.55;;;6.80;99.90;;;;;;5020268;28;20206;-80
2021/03/01 06:35:25;;;;;;;29.70;18.05;;;6.80;99.90;;;;;;5023845;28;20194;-78
2021/03/01 06:38:13;;;;;;;34.75;19.20;;;6.70;99.90;;;;;;5028152;28;20197;-79
2021/03/01 06:40:39;;;;;;;27.50;18.80;;;6.70;99.90;;;;;;5022608;28;20257;-79
2021/03/01 06:43:10;;;;;;;32.47;20.70;;;6.70;99.90;;;;;;5021766;28;20668;-80
2021/03/01 06:45:36;;;;;;;30.73;18.17;;;6.80;99.90;;;;;;5025171;28;20296;-79
2021/03/01 06:48:03;;;;;;;34.28;19.23;;;6.80;99.90;;;;;;5025666;28;20675;-78
2021/03/01 06:50:32;;;;;;;29.83;19.05;;;6.80;99.90;;;;;;5023247;28;20313;-78
2021/03/01 06:53:00;;;;;;;38.15;22.08;;;6.80;99.90;;;;;;5027803;28;20220;-79
2021/03/01 06:55:28;;;;;;;32.30;20.90;;;6.80;99.90;;;;;;5021577;28;20285;-78
2021/03/01 06:57:54;;;;;;;35.65;18.35;;;6.80;99.90;;;;;;5020165;28;20664;-79
2021/03/01 07:00:26;;;;;;;30.63;19.83;;;6.80;99.90;;;;;;5022686;28;20197;-80
2021/03/01 07:02:53;;;;;;;28.90;17.70;;;6.80;99.90;;;;;;5023082;28;21000;-80
2021/03/01 07:05:19;;;;;;;31.83;19.25;;;6.80;99.90;;;;;;5030216;28;20645;-80
2021/03/01 07:07:46;;;;;;;32.17;19.20;;;6.90;99.90;;;;;;5022766;28;20221;-80
2021/03/01 07:10:13;;;;;;;33.33;20.10;;;6.90;99.90;;;;;;5023235;28;20201;-81
2021/03/01 07:12:42;;;;;;;31.08;19.40;;;6.90;99.90;;;;;;5022131;28;20300;-79
2021/03/01 07:15:11;;;;;;;31.20;19.88;;;6.90;99.90;;;;;;5017964;28;20195;-79
2021/03/01 07:17:39;;;;;;;32.83;21.25;;;6.90;99.90;;;;;;5021396;28;20198;-79
2021/03/01 07:20:08;;;;;;;31.85;21.58;;;6.90;99.90;;;;;;5017319;28;20249;-79
2021/03/01 07:22:37;;;;;;;31.58;20.00;;;6.90;99.90;;;;;;5020725;28;20197;-80
2021/03/01 07:25:07;;;;;;;31.63;20.08;;;6.90;99.90;;;;;;5026927;28;20201;-81
2021/03/01 07:27:39;;;;;;;31.25;19.40;;;6.90;99.90;;;;;;5028936;28;20226;-80
2021/03/01 07:30:07;;;;;;;33.67;21.45;;;6.90;99.90;;;;;;5026672;28;20603;-79
2021/03/01 07:32:36;;;;;;;33.85;22.42;;;6.90;99.90;;;;;;5022387;28;20202;-79
2021/03/01 07:35:03;;;;;;;33.55;21.90;;;6.90;99.90;;;;;;5023197;28;20336;-80
2021/03/01 07:37:30;;;;;;;40.85;21.33;;;6.90;99.90;;;;;;5019649;28;20554;-79
2021/03/01 07:39:57;;;;;;;35.00;19.55;;;6.90;99.90;;;;;;5020640;28;20574;-79
2021/03/01 07:42:27;;;;;;;39.33;21.42;;;6.90;99.90;;;;;;5020826;28;20199;-80
2021/03/01 07:44:54;;;;;;;37.47;22.77;;;6.90;99.90;;;;;;5019910;28;20186;-79
2021/03/01 07:47:30;;;;;;;34.40;22.23;;;7.00;99.90;;;;;;5024774;28;20213;-78
2021/03/01 07:49:57;;;;;;;33.65;21.85;;;7.00;99.90;;;;;;5019285;28;20205;-79
2021/03/01 07:52:39;;;;;;;38.80;22.73;;;7.00;99.90;;;;;;5022740;28;20230;-80
2021/03/01 07:55:07;;;;;;;42.78;22.75;;;7.00;99.90;;;;;;5021083;28;20202;-79
2021/03/01 07:57:36;;;;;;;35.58;21.02;;;7.00;99.90;;;;;;5020005;28;20232;-79
2021/03/01 08:00:21;;;;;;;42.35;24.20;;;7.00;99.90;;;;;;5021977;28;20225;-81
2021/03/01 08:02:48;;;;;;;33.45;21.17;;;6.90;99.90;;;;;;5019989;28;20233;-79
2021/03/01 08:05:23;;;;;;;35.67;22.50;;;6.90;99.90;;;;;;5022958;28;20194;-81
2021/03/01 08:07:49;;;;;;;35.25;21.67;;;6.90;99.90;;;;;;5023010;28;20193;-80
2021/03/01 08:10:19;;;;;;;35.03;23.10;;;6.90;99.90;;;;;;5030049;28;20193;-80
2021/03/01 08:13:01;;;;;;;32.42;22.48;;;6.90;99.90;;;;;;5020616;28;20205;-80
2021/03/01 08:15:33;;;;;;;31.00;20.35;;;7.00;99.90;;;;;;5029735;28;20221;-79
2021/03/01 08:18:00;;;;;;;29.50;20.40;;;7.00;99.90;;;;;;5015707;28;20228;-79
2021/03/01 08:20:56;;;;;;;35.65;20.73;;;7.10;99.90;;;;;;5015194;28;20268;-79
2021/03/01 08:23:33;;;;;;;31.23;18.52;;;7.10;99.90;;;;;;5014445;28;20997;-80
2021/03/01 08:26:02;;;;;;;28.88;19.42;;;7.20;99.90;;;;;;5018767;28;20198;-81
2021/03/01 08:28:49;;;;;;;31.08;19.98;;;7.20;99.90;;;;;;5014496;28;20226;-79
2021/03/01 08:31:34;;;;;;;28.55;19.05;;;7.20;99.90;;;;;;5020057;28;20237;-78
2021/03/01 08:34:30;;;;;;;27.63;18.73;;;7.30;99.90;;;;;;5019336;28;20201;-78
2021/03/01 08:36:57;;;;;;;29.80;17.83;;;7.30;99.90;;;;;;5015572;28;20201;-80
2021/03/01 08:39:58;;;;;;;27.02;18.00;;;7.30;99.90;;;;;;5018626;28;20597;-79
2021/03/01 08:42:43;;;;;;;29.95;18.13;;;7.30;99.90;;;;;;5018457;28;20259;-79
2021/03/01 08:45:11;;;;;;;34.75;20.80;;;7.40;99.90;;;;;;5022851;28;20796;-79
2021/03/01 08:47:47;;;;;;;26.88;19.55;;;7.40;99.90;;;;;;5019964;28;20201;-80
2021/03/01 08:50:14;;;;;;;30.30;19.55;;;7.50;99.90;;;;;;5018215;28;20198;-79
2021/03/01 08:52:47;;;;;;;26.90;18.83;;;7.50;99.90;;;;;;5021154;28;20474;-79
2021/03/01 08:55:14;;;;;;;28.17;17.40;;;7.50;99.90;;;;;;5014150;28;20544;-80
2021/03/01 08:58:09;;;;;;;29.20;20.42;;;7.60;99.90;;;;;;5014091;28;20198;-79
2021/03/01 09:00:37;;;;;;;33.75;20.65;;;7.60;99.90;;;;;;5012176;28;20281;-80
2021/03/01 09:03:22;;;;;;;26.83;19.13;;;7.70;99.90;;;;;;5017762;28;20238;-79
2021/03/01 09:05:50;;;;;;;30.88;20.15;;;7.70;99.90;;;;;;5009414;28;20228;-79
2021/03/01 09:08:28;;;;;;;26.77;17.92;;;7.80;99.90;;;;;;5019702;28;22105;-79
2021/03/01 09:10:55;;;;;;;28.98;20.15;;;7.80;99.90;;;;;;5021936;28;20920;-82
2021/03/01 09:13:23;;;;;;;32.35;21.88;;;7.90;99.90;;;;;;5016754;28;20202;-82
2021/03/01 09:15:51;;;;;;;29.38;19.50;;;8.00;99.90;;;;;;5019615;28;20252;-85
2021/03/01 09:18:18;;;;;;;29.75;21.80;;;7.90;99.90;;;;;;5016760;28;20256;-82
2021/03/01 09:20:47;;;;;;;30.85;20.38;;;7.90;99.90;;;;;;5016681;28;20229;-84
2021/03/01 09:23:14;;;;;;;27.73;20.38;;;7.90;99.90;;;;;;5013709;28;20230;-84
2021/03/01 09:25:41;;;;;;;28.75;20.30;;;7.90;99.90;;;;;;5021773;28;20210;-87
2021/03/01 09:28:08;;;;;;;30.48;20.63;;;7.90;99.90;;;;;;5023542;28;20359;-82
2021/03/01 09:30:35;;;;;;;30.33;20.33;;;7.90;99.90;;;;;;5020508;28;20198;-84
2021/03/01 09:33:04;;;;;;;30.67;18.67;;;7.80;99.90;;;;;;5020466;28;20201;-81
2021/03/01 09:35:33;;;;;;;25.17;17.02;;;7.80;99.90;;;;;;5019987;28;20194;-82
2021/03/01 09:38:01;;;;;;;23.98;17.17;;;7.80;99.90;;;;;;5021366;28;20197;-84
2021/03/01 09:40:27;;;;;;;27.13;19.65;;;7.80;99.90;;;;;;5015111;28;20232;-85
2021/03/01 09:42:56;;;;;;;22.98;16.90;;;7.80;99.90;;;;;;5005336;28;20251;-83
2021/03/01 09:45:23;;;;;;;22.40;16.55;;;7.80;99.90;;;;;;5009137;28;20598;-83
2021/03/01 09:47:51;;;;;;;25.63;17.92;;;7.90;99.90;;;;;;5013823;28;20197;-84
2021/03/01 09:50:21;;;;;;;24.40;15.63;;;7.90;99.90;;;;;;5018183;28;20209;-86
2021/03/01 09:52:48;;;;;;;23.38;15.73;;;7.90;99.90;;;;;;5019211;28;20202;-82
2021/03/01 09:55:15;;;;;;;21.70;16.02;;;7.90;99.90;;;;;;5019992;28;20195;-85
2021/03/01 09:57:41;;;;;;;24.95;16.30;;;8.00;99.90;;;;;;5012950;28;20198;-85
2021/03/01 10:00:28;;;;;;;20.70;15.10;;;8.00;99.90;;;;;;5011573;28;20255;-83
2021/03/01 10:03:03;;;;;;;21.75;15.38;;;8.10;99.90;;;;;;5008647;28;20257;-83
2021/03/01 10:05:34;;;;;;;22.60;16.08;;;8.10;99.90;;;;;;5017075;28;20205;-82
2021/03/01 10:08:02;;;;;;;22.77;15.85;;;8.10;99.90;;;;;;5016768;28;20201;-83
2021/03/01 10:10:37;;;;;;;23.48;16.98;;;8.10;99.90;;;;;;5013423;28;20201;-83
2021/03/01 10:13:05;;;;;;;22.10;14.55;;;8.10;99.90;;;;;;5017832;28;20233;-81
2021/03/01 10:15:43;;;;;;;23.33;16.58;;;8.20;99.90;;;;;;5015756;28;20218;-81
2021/03/01 10:18:11;;;;;;;22.55;14.95;;;8.20;99.90;;;;;;5017341;28;20202;-81
2021/03/01 10:20:54;;;;;;;22.42;15.55;;;8.30;99.90;;;;;;5018762;28;20202;-80
2021/03/01 10:23:28;;;;;;;23.20;16.23;;;8.40;99.90;;;;;;5015409;28;20230;-84
2021/03/01 10:26:14;;;;;;;23.70;17.08;;;8.40;99.90;;;;;;5018747;28;20295;-80
2021/03/01 10:28:42;;;;;;;23.52;14.70;;;8.40;99.90;;;;;;5021396;28;20236;-84
2021/03/01 10:31:10;;;;;;;28.42;16.30;;;8.50;99.90;;;;;;5017099;28;20649;-80
2021/03/01 10:33:54;;;;;;;23.10;15.95;;;8.50;99.90;;;;;;5005984;28;20342;-83
2021/03/01 10:36:21;;;;;;;23.13;15.43;;;8.60;99.90;;;;;;5012506;28;20538;-80
2021/03/01 10:38:57;;;;;;;21.65;14.52;;;8.60;99.90;;;;;;5012029;28;20231;-81
2021/03/01 10:41:25;;;;;;;21.88;16.00;;;8.70;99.90;;;;;;5013714;28;20335;-81
2021/03/01 10:43:56;;;;;;;25.08;17.30;;;8.70;99.90;;;;;;5010510;28;20554;-81
2021/03/01 10:46:34;;;;;;;21.98;16.17;;;8.70;99.90;;;;;;5013231;28;20206;-80
2021/03/01 10:49:03;;;;;;;22.55;15.88;;;8.80;99.90;;;;;;5011881;28;20203;-80
2021/03/01 10:51:30;;;;;;;27.63;19.08;;;8.80;99.90;;;;;;5016049;28;20780;-80
2021/03/01 10:53:57;;;;;;;29.50;17.60;;;9.00;99.90;;;;;;5013913;28;20662;-83
2021/03/01 10:56:23;;;;;;;24.98;17.25;;;8.90;99.90;;;;;;5016886;28;20207;-81
2021/03/01 10:58:50;;;;;;;22.25;16.40;;;9.00;99.90;;;;;;5013554;28;20887;-82
2021/03/01 11:01:17;;;;;;;20.70;15.73;;;9.10;99.90;;;;;;5013070;28;20198;-80
2021/03/01 11:03:45;;;;;;;22.75;15.02;;;9.10;99.90;;;;;;5015544;28;20227;-81
2021/03/01 11:06:12;;;;;;;23.20;17.27;;;9.10;99.90;;;;;;5015013;28;20191;-81
2021/03/01 11:08:40;;;;;;;24.05;16.88;;;9.20;99.90;;;;;;5013678;28;20251;-80
2021/03/01 11:11:06;;;;;;;23.45;16.38;;;9.30;99.90;;;;;;5014247;28;20202;-80
2021/03/01 11:13:32;;;;;;;21.67;15.30;;;9.30;99.90;;;;;;5009828;28;20713;-82
2021/03/01 11:15:59;;;;;;;25.13;16.40;;;9.40;99.90;;;;;;5018522;28;20566;-81
2021/03/01 11:18:25;;;;;;;24.92;16.63;;;9.40;99.90;;;;;;5019059;28;20199;-81
2021/03/01 11:20:52;;;;;;;19.42;15.35;;;9.50;99.90;;;;;;5015176;28;20727;-80
2021/03/01 11:23:18;;;;;;;25.85;16.73;;;9.50;99.90;;;;;;5014724;28;20294;-83
2021/03/01 11:25:46;;;;;;;22.38;16.48;;;9.50;99.90;;;;;;5012426;28;20422;-84
2021/03/01 11:28:13;;;;;;;21.05;15.32;;;9.60;99.90;;;;;;5021542;28;20542;-82
2021/03/01 11:30:39;;;;;;;27.17;16.65;;;9.60;99.90;;;;;;5019775;28;20215;-82
2021/03/01 11:33:07;;;;;;;18.65;14.43;;;9.60;99.90;;;;;;5015067;28;20439;-82
2021/03/01 11:35:34;;;;;;;24.75;15.68;;;9.70;99.90;;;;;;5011781;28;20204;-82
2021/03/01 11:38:02;;;;;;;23.08;15.07;;;9.70;99.90;;;;;;5012160;28;20204;-82
2021/03/01 11:40:28;;;;;;;27.48;16.10;;;9.80;99.90;;;;;;5017043;28;20230;-82
2021/03/01 11:42:56;;;;;;;23.33;14.02;;;9.80;99.90;;;;;;5009631;28;20201;-82
2021/03/01 11:45:22;;;;;;;22.67;14.60;;;9.80;99.90;;;;;;5014051;28;20198;-83
2021/03/01 11:47:49;;;;;;;23.95;15.52;;;9.90;99.90;;;;;;5010902;28;20200;-85
2021/03/01 11:50:17;;;;;;;19.92;13.63;;;9.90;99.90;;;;;;5015805;28;20228;-83
2021/03/01 11:52:44;;;;;;;20.05;15.05;;;10.00;99.90;;;;;;5009684;28;20675;-82
2021/03/01 11:55:12;;;;;;;20.45;14.15;;;10.00;99.90;;;;;;5017324;28;20197;-81
2021/03/01 11:57:38;;;;;;;20.48;14.20;;;10.10;99.90;;;;;;5016629;28;20203;-85
2021/03/01 12:00:09;;;;;;;21.67;14.57;;;10.10;99.90;;;;;;5012940;28;20323;-82
2021/03/01 12:02:35;;;;;;;400.00;54.45;;;10.20;99.90;;;;;;5011099;28;20240;-83
2021/03/01 12:05:02;;;;;;;23.25;14.27;;;10.20;99.90;;;;;;5016228;28;20262;-83
2021/03/01 12:07:28;;;;;;;18.85;13.45;;;10.30;99.90;;;;;;5017545;28;21060;-83
2021/03/01 12:09:54;;;;;;;19.50;14.05;;;10.30;99.90;;;;;;5017281;28;20214;-83
2021/03/01 12:12:21;;;;;;;19.13;13.98;;;10.40;99.90;;;;;;5017389;28;20203;-84
2021/03/01 12:14:47;;;;;;;19.23;12.95;;;10.50;99.90;;;;;;5012616;28;20266;-84
2021/03/01 12:17:14;;;;;;;16.70;13.07;;;10.50;99.90;;;;;;5014707;28;20858;-82
2021/03/01 12:19:41;;;;;;;19.80;13.50;;;10.60;99.90;;;;;;5014110;28;20228;-83
2021/03/01 12:22:07;;;;;;;15.63;12.25;;;10.60;99.90;;;;;;5016704;28;20192;-82
2021/03/01 12:24:34;;;;;;;19.23;13.45;;;10.70;99.90;;;;;;5018430;28;20952;-84
2021/03/01 12:27:00;;;;;;;21.30;13.52;;;10.70;99.90;;;;;;5012673;28;20267;-83
2021/03/01 12:29:27;;;;;;;15.45;11.85;;;10.80;99.90;;;;;;5013611;28;20209;-83
2021/03/01 12:31:53;;;;;;;20.52;13.50;;;10.80;99.90;;;;;;5010248;28;20285;-81
2021/03/01 12:34:20;;;;;;;18.73;12.55;;;10.90;99.90;;;;;;5007339;28;20209;-84
2021/03/01 12:36:47;;;;;;;17.67;12.75;;;10.90;99.90;;;;;;5017766;28;20216;-81
2021/03/01 12:39:14;;;;;;;29.13;12.95;;;11.00;99.90;;;;;;5013333;28;20257;-85
2021/03/01 12:41:40;;;;;;;18.05;11.95;;;11.10;99.90;;;;;;5014949;28;20278;-83
2021/03/01 12:44:07;;;;;;;14.75;11.38;;;11.10;99.90;;;;;;5012997;28;20202;-86
2021/03/01 12:46:34;;;;;;;48.22;15.45;;;11.20;99.90;;;;;;5013063;28;20202;-83